Bremerton, WA

5:41 AM PDT on August 29, 2014 (GMT -0700)
Bremerton National | Change Station
CLOSE
Current Station
Airport
Location: Bremerton,
Elevation: 443 ft
Nearby Weather Stations

Elev 443 ft 47.49 °N, 122.76 °W | Updated 6 minutes ago

Overcast
Overcast
57 °F
Feels Like 57 °F
N
6
Wind Variable Wind from SSW

Today
High -- | Low -- °F
--% Chance of Precip.
Yesterday
High -- | Low -- °F
Precip. -- in
6:25 AM 7:56 PM
Waxing Crescent, 14% visible
Pressure 30.01 in
Visibility 1.0 miles
Clouds Overcast 300 ft
Dew Point 57 °F
Humidity 100%
Rainfall 0.00 in
Snow Depth Not available.
UV 0 out of 12
Pollen 2.40 out of 12
Air Quality Not available.
Flu Activity Not available.
METAR KPWT 291235Z AUTO 20005KT 1SM OVC003 14/14 A3001 RMK AO1

More Conditions Fewer Conditions

Pressure 30.01 in
Visibility 1.0 miles
Clouds Overcast 300 ft
Dew Point 57 °F
Humidity 100%
Rainfall 0.00 in
Snow Depth Not available.
UV 0 out of 12
Pollen 2.40 out of 12
Air Quality Not available.
Flu Activity Not available.
METAR KPWT 291235Z AUTO 20005KT 1SM OVC003 14/14 A3001 RMK AO1

More Conditions Fewer Conditions

10-Day Weather Forecast

Almanac

Astronomy

Aug. 29, 2014 Rise Set
Actual Time 6:25 AM PDT 7:56 PM PDT
Civil Twilight 5:52 AM PDT 8:28 PM PDT
Nautical Twilight 5:13 AM PDT 9:07 PM PDT
Astronomical Twilight 4:31 AM PDT 9:49 PM PDT
Moon 10:39 AM PDT 9:36 PM PDT
Length of Visible Light 14h 35m
Length of Day
13h 31m
Tomorrow will be 3m 18s shorter.
Waxing Crescent, 14% of the Moon is Illuminated
Today
Waxing Crescent
Sep 2
First Quarter
Sep 8
Full
Sep 15
Last Quarter
Sep 24
New

Today's Extremes

State Highs State Lows

Community

WunderPhotos

Upload Photos

1,748,221 photos uploaded!

Nearby

Snow Depth

Station Depth Elevation
Mount Crag 0 in 4050 ft
Dungeness 0 in 4100 ft
Alpine Meadows 0 in 3500 ft
Skookum Creek 0 in 3920 ft
Mount Gardner 0 in 3000 ft

Earthquake Activity

City Distance Mag. Time & Date
No recent earthquake activity has been reported nearby.
Minimum magnitude displayed is 2.5.

Coastal Water Temperatures

Place Temperature
Port Townsend, WA 53.1 °F
Seattle, WA 55.9 °F
Friday Harbor, WA 53.1 °F
Tacoma, WA 55.0 °F

Nearby Weather Stations